Time;durP1;ratioP1;P1;durP2;ratioP2;P2;SDS_P1;SDS_P2;PMS_P1;PMS_P2;Temp;Humidity;BMP_temperature;BMP_pressure;BME280_temperature;BME280_humidity;BME280_pressure;Samples;Min_cycle;Max_cycle;Signal;HPM_P1;HPM_P2
2022/04/17 00:00:05;;;;;;;1684.38;999.90;;;7.10;99.90;;;;;;5134763;27;20295;-75
2022/04/17 00:02:31;;;;;;;1302.57;999.90;;;7.00;99.90;;;;;;5134057;27;20047;-76
2022/04/17 00:04:56;;;;;;;1733.60;999.90;;;7.00;99.90;;;;;;5115230;28;20043;-76
2022/04/17 00:07:22;;;;;;;1351.47;999.90;;;7.00;99.90;;;;;;5133783;27;20412;-76
2022/04/17 00:09:48;;;;;;;1999.90;999.90;;;6.90;99.90;;;;;;5134071;27;20069;-77
2022/04/17 00:12:13;;;;;;;1526.43;999.90;;;6.90;99.90;;;;;;5134691;27;20047;-76
2022/04/17 00:14:39;;;;;;;1523.72;999.90;;;6.90;1.00;;;;;;5134516;27;20420;-76
2022/04/17 00:17:05;;;;;;;1999.90;999.90;;;7.00;1.00;;;;;;5115953;27;20043;-75
2022/04/17 00:19:32;;;;;;;1934.85;999.90;;;6.80;99.90;;;;;;5115363;27;20043;-76
2022/04/17 00:21:57;;;;;;;1991.15;999.90;;;7.80;1.00;;;;;;5116061;27;20395;-76
2022/04/17 00:24:23;;;;;;;1999.90;999.90;;;6.80;99.90;;;;;;5134305;27;20075;-76
2022/04/17 00:26:48;;;;;;;1999.90;999.90;;;6.80;99.90;;;;;;5115489;27;20133;-75
2022/04/17 00:29:14;;;;;;;1999.90;999.90;;;7.70;99.90;;;;;;5133808;27;20039;-76
2022/04/17 00:31:40;;;;;;;1999.90;999.90;;;6.70;99.90;;;;;;5098680;27;20144;-78
2022/04/17 00:34:05;;;;;;;1999.90;999.90;;;6.60;99.90;;;;;;5133664;27;20043;-75
2022/04/17 00:36:31;;;;;;;1999.90;999.90;;;6.70;99.90;;;;;;5096290;27;20426;-80
2022/04/17 00:38:57;;;;;;;1999.90;999.90;;;7.40;99.90;;;;;;5133836;27;20122;-75
2022/04/17 00:41:22;;;;;;;1955.50;999.90;;;6.90;1.00;;;;;;5133903;27;20046;-75
2022/04/17 00:43:48;;;;;;;1999.90;999.90;;;7.80;99.90;;;;;;5133734;27;20058;-75
2022/04/17 00:46:15;;;;;;;1865.03;999.90;;;6.80;99.90;;;;;;5133641;27;20047;-76
2022/04/17 00:48:41;;;;;;;1999.90;999.90;;;7.80;1.00;;;;;;5114591;27;20043;-76
2022/04/17 00:51:07;;;;;;;1986.18;999.90;;;6.70;1.00;;;;;;5133590;27;20039;-75
2022/04/17 00:53:35;;;;;;;1527.90;999.90;;;7.90;99.90;;;;;;5133441;27;20047;-78
2022/04/17 00:56:02;;;;;;;1754.38;999.90;;;7.00;99.90;;;;;;5115278;27;20047;-76
2022/04/17 00:58:30;;;;;;;1830.25;999.90;;;7.80;1.00;;;;;;5132447;27;20043;-76
2022/04/17 01:00:56;;;;;;;1999.90;999.90;;;7.90;1.00;;;;;;5133120;27;20050;-76
2022/04/17 01:03:21;;;;;;;1999.90;999.90;;;7.70;1.00;;;;;;5132769;27;20407;-76
2022/04/17 01:05:47;;;;;;;1999.90;999.90;;;6.50;1.00;;;;;;5133105;27;20054;-75
2022/04/17 01:08:14;;;;;;;1999.90;999.90;;;8.10;1.00;;;;;;5114810;27;20075;-76
2022/04/17 01:10:40;;;;;;;1653.88;999.90;;;7.40;1.00;;;;;;5132953;27;20043;-75
2022/04/17 01:13:08;;;;;;;1999.90;999.90;;;6.40;1.00;;;;;;5133377;27;20520;-75
2022/04/17 01:15:36;;;;;;;1999.90;999.90;;;6.80;1.00;;;;;;5114710;27;20058;-75
2022/04/17 01:18:01;;;;;;;;;;;6.50;1.00;;;;;;5133013;27;20047;-75
2022/04/17 01:20:27;;;;;;;1565.45;999.90;;;6.40;1.00;;;;;;5132937;27;20248;-76
2022/04/17 01:26:56;;;;;;;1999.90;999.90;;;6.30;1.00;;;;;;5132794;27;20059;-75
2022/04/17 01:28:27;;;;;;;1999.90;999.90;;;7.60;1.00;;;;;;5132777;27;20405;-75
2022/04/17 01:30:56;;;;;;;1999.90;999.90;;;6.30;1.00;;;;;;5132575;27;20130;-75
2022/04/17 01:33:23;;;;;;;1999.90;999.90;;;7.60;1.00;;;;;;5132864;27;20047;-75
2022/04/17 01:35:49;;;;;;;1005.95;901.13;;;6.40;1.00;;;;;;5129441;27;20047;-80
2022/04/17 01:38:15;;;;;;;1160.82;934.17;;;7.30;1.00;;;;;;5132544;27;20043;-81
2022/04/17 01:40:41;;;;;;;1059.50;943.55;;;6.10;1.00;;;;;;5132631;27;20324;-80
2022/04/17 01:43:11;;;;;;;1106.13;978.47;;;6.00;1.00;;;;;;5132609;27;20364;-80
2022/04/17 01:45:37;;;;;;;1055.82;936.35;;;5.90;1.00;;;;;;5114245;27;20074;-82
2022/04/17 01:48:04;;;;;;;1115.97;958.67;;;6.90;1.00;;;;;;5132927;27;20054;-81
2022/04/17 01:50:30;;;;;;;1096.25;980.33;;;5.80;1.00;;;;;;5132084;27;20081;-80
2022/04/17 01:53:00;;;;;;;1448.18;999.90;;;5.70;1.00;;;;;;5097208;27;20073;-81
2022/04/17 01:55:32;;;;;;;1183.45;999.90;;;7.70;1.00;;;;;;5132421;27;20050;-81
2022/04/17 01:57:57;;;;;;;1190.78;999.90;;;5.60;1.00;;;;;;5132449;27;20367;-84
2022/04/17 02:00:24;;;;;;;1035.80;927.15;;;7.50;1.00;;;;;;5132283;27;20031;-80
2022/04/17 02:02:49;;;;;;;1004.33;900.42;;;5.40;1.00;;;;;;5131924;27;20466;-80
2022/04/17 02:05:15;;;;;;;1008.75;905.88;;;7.10;1.00;;;;;;5097279;27;20147;-79
2022/04/17 02:07:41;;;;;;;1075.32;965.72;;;7.20;1.00;;;;;;5113556;27;20367;-80
2022/04/17 02:10:07;;;;;;;1086.65;972.60;;;6.50;1.00;;;;;;5096660;28;20043;-80
2022/04/17 02:12:34;;;;;;;1091.63;976.13;;;5.00;1.00;;;;;;5132375;27;20046;-80
2022/04/17 02:15:00;;;;;;;1085.82;971.60;;;5.50;1.00;;;;;;5113964;28;20046;-80
2022/04/17 02:17:26;;;;;;;1118.43;997.38;;;5.10;1.00;;;;;;5097188;27;20439;-80
2022/04/17 02:19:51;;;;;;;1092.68;973.30;;;4.70;1.00;;;;;;5113198;28;20442;-80
2022/04/17 02:22:18;;;;;;;1124.25;999.22;;;5.70;1.00;;;;;;5131920;28;20082;-82
2022/04/17 02:24:44;;;;;;;1150.60;999.90;;;6.50;1.00;;;;;;5113696;28;20239;-80
2022/04/17 02:27:10;;;;;;;1119.40;997.28;;;4.50;1.00;;;;;;5131899;28;20055;-81
2022/04/17 02:29:35;;;;;;;1490.28;999.90;;;4.60;1.00;;;;;;5115767;27;20040;-80
2022/04/17 02:32:01;;;;;;;1190.90;999.90;;;4.40;1.00;;;;;;5135954;27;20130;-82
2022/04/17 02:34:27;;;;;;;1129.22;999.90;;;2.80;1.00;;;;;;5100785;27;20130;-80
2022/04/17 02:36:53;;;;;;;1158.18;999.90;;;4.60;1.00;;;;;;5117842;27;20062;-82
2022/04/17 02:39:19;;;;;;;1166.70;999.90;;;4.50;1.00;;;;;;5101428;27;20363;-81
2022/04/17 02:41:45;;;;;;;1171.00;999.90;;;;;;;;;;5117744;27;20132;-81
2022/04/17 02:44:10;;;;;;;1183.18;999.90;;;4.40;1.00;;;;;;5136560;27;20050;-81
2022/04/17 02:49:20;;;;;;;1257.35;999.90;;;6.00;1.00;;;;;;5118257;27;20055;-79
2022/04/17 02:51:46;;;;;;;1376.57;999.90;;;5.10;1.00;;;;;;5135985;27;20437;-81
2022/04/17 02:54:12;;;;;;;1999.90;999.90;;;4.40;1.00;;;;;;5118250;27;20043;-81
2022/04/17 02:56:37;;;;;;;1997.65;999.90;;;4.40;1.00;;;;;;5118041;27;20051;-80
2022/04/17 02:59:03;;;;;;;1316.78;943.85;;;;;;;;;;5136162;27;20181;-80
2022/04/17 03:06:57;;;;;;;1059.57;944.15;;;4.90;1.00;;;;;;5135452;27;20120;-81
2022/04/17 03:09:23;;;;;;;896.25;819.70;;;4.40;1.00;;;;;;5083310;27;20138;-81
2022/04/17 03:11:49;;;;;;;902.80;823.00;;;4.60;1.00;;;;;;5116958;27;20047;-81
2022/04/17 03:14:14;;;;;;;610.88;569.58;;;6.50;1.00;;;;;;5100537;27;20051;-80
2022/04/17 03:16:40;;;;;;;543.67;507.73;;;4.80;1.00;;;;;;5117176;27;20043;-80
2022/04/17 03:19:06;;;;;;;543.30;507.02;;;6.10;1.00;;;;;;5117050;27;20067;-80
2022/04/17 03:21:33;;;;;;;505.17;472.80;;;6.10;1.00;;;;;;5135236;27;20057;-83
2022/04/17 03:23:59;;;;;;;504.73;472.75;;;;;;;;;;5135278;27;20078;-80
2022/04/17 03:26:24;;;;;;;576.03;536.45;;;4.20;1.00;;;;;;5099745;27;20422;-81
2022/04/17 03:28:54;;;;;;;911.20;839.88;;;4.00;1.00;;;;;;5116977;27;20045;-81
2022/04/17 03:31:20;;;;;;;891.08;821.97;;;4.00;1.00;;;;;;5135410;27;20192;-80
2022/04/17 03:33:46;;;;;;;922.20;845.25;;;;;;;;;;5116519;27;20139;-84
2022/04/17 03:36:12;;;;;;;914.88;842.90;;;4.00;1.00;;;;;;5116673;27;20082;-80
2022/04/17 03:38:38;;;;;;;945.83;869.72;;;5.00;1.00;;;;;;5117066;27;20117;-80
2022/04/17 03:41:04;;;;;;;932.92;857.20;;;3.60;1.00;;;;;;5134742;27;20145;-80
2022/04/17 03:43:29;;;;;;;950.17;876.20;;;4.00;1.00;;;;;;5135011;27;20045;-80
2022/04/17 03:45:55;;;;;;;957.70;882.70;;;2.40;1.00;;;;;;5099548;27;20389;-80
2022/04/17 03:48:21;;;;;;;1001.42;918.40;;;3.60;1.00;;;;;;5135305;27;20100;-80
2022/04/17 03:50:47;;;;;;;926.10;852.08;;;5.80;1.00;;;;;;5116155;27;20122;-86
2022/04/17 03:53:13;;;;;;;945.10;868.15;;;4.10;1.00;;;;;;5116112;27;20047;-80
2022/04/17 03:55:39;;;;;;;909.13;838.63;;;3.90;1.00;;;;;;5116636;27;20039;-82
2022/04/17 03:58:05;;;;;;;964.38;887.30;;;4.20;1.00;;;;;;5116565;27;20035;-80
2022/04/17 04:00:31;;;;;;;956.50;881.28;;;3.40;1.00;;;;;;5116316;27;20031;-80
2022/04/17 04:02:56;;;;;;;947.85;872.83;;;5.20;1.00;;;;;;5116002;27;20126;-80
2022/04/17 04:05:22;;;;;;;897.88;827.35;;;3.40;1.00;;;;;;5082475;27;20038;-80
2022/04/17 04:07:48;;;;;;;780.92;719.60;;;3.30;1.00;;;;;;5134894;27;20058;-86
2022/04/17 04:10:15;;;;;;;760.60;703.10;;;5.10;1.00;;;;;;5134983;27;20074;-81
2022/04/17 04:12:40;;;;;;;839.58;772.58;;;3.30;1.00;;;;;;5134463;27;20355;-82
2022/04/17 04:15:07;;;;;;;894.85;824.35;;;3.30;1.00;;;;;;5134154;27;20039;-80
2022/04/17 04:17:34;;;;;;;897.55;824.45;;;3.30;1.00;;;;;;5134687;27;20393;-81
2022/04/17 04:20:00;;;;;;;876.40;804.67;;;3.40;1.00;;;;;;5133950;27;20486;-82
2022/04/17 04:22:25;;;;;;;804.55;742.47;;;3.00;1.00;;;;;;5098891;27;20039;-81
2022/04/17 04:24:51;;;;;;;805.05;744.35;;;3.20;1.00;;;;;;5133851;27;20110;-82
2022/04/17 04:30:01;;;;;;;769.00;712.10;;;2.90;1.00;;;;;;5115422;27;20047;-82
2022/04/17 04:32:30;;;;;;;851.53;786.17;;;3.30;1.00;;;;;;5115410;27;20043;-81
2022/04/17 04:35:02;;;;;;;858.22;790.70;;;3.10;1.00;;;;;;5115289;27;20078;-81
2022/04/17 04:37:31;;;;;;;865.67;797.90;;;3.10;1.00;;;;;;5133859;27;20046;-81
2022/04/17 04:39:57;;;;;;;810.47;747.95;;;3.60;1.00;;;;;;5115094;27;20047;-84
2022/04/17 04:42:22;;;;;;;796.40;739.97;;;3.20;1.00;;;;;;5115526;27;20380;-82
2022/04/17 04:46:06;;;;;;;753.55;700.33;;;3.00;1.00;;;;;;5115730;27;20130;-81
2022/04/17 04:47:34;;;;;;;779.67;725.53;;;3.00;1.00;;;;;;5133733;27;20047;-81
2022/04/17 04:50:01;;;;;;;708.53;658.28;;;3.30;1.00;;;;;;5114693;27;20047;-82
2022/04/17 04:52:27;;;;;;;765.35;710.17;;;;;;;;;;5097510;27;20055;-81
2022/04/17 04:54:53;;;;;;;747.50;694.50;;;3.20;1.00;;;;;;5115053;27;20403;-86
2022/04/17 04:57:19;;;;;;;755.45;700.30;;;3.00;1.00;;;;;;5097863;27;20047;-82
2022/04/17 04:59:45;;;;;;;760.95;708.58;;;;;;;;;;5132974;27;20051;-83
2022/04/17 05:02:11;;;;;;;774.65;719.70;;;3.30;1.00;;;;;;5114266;27;20522;-82
2022/04/17 05:04:36;;;;;;;736.95;684.08;;;4.70;1.00;;;;;;5115053;27;20135;-82
2022/04/17 05:07:02;;;;;;;688.33;639.88;;;3.40;1.00;;;;;;5114631;27;20111;-82
2022/04/17 05:09:28;;;;;;;707.90;657.92;;;3.40;1.00;;;;;;5114995;27;20075;-81
2022/04/17 05:11:54;;;;;;;741.25;688.28;;;;;;;;;;5097556;27;20058;-86
2022/04/17 05:14:20;;;;;;;703.63;654.00;;;3.30;1.00;;;;;;5133139;27;20050;-83
2022/04/17 05:16:46;;;;;;;779.03;723.45;;;;;;;;;;5114278;27;20043;-82
2022/04/17 05:19:21;;;;;;;648.97;603.08;;;3.30;1.00;;;;;;5114410;27;20100;-81
2022/04/17 05:21:52;;;;;;;749.83;697.05;;;5.60;1.00;;;;;;5081648;27;20051;-81
2022/04/17 05:24:17;;;;;;;751.30;698.63;;;5.10;1.00;;;;;;5132839;27;20122;-82
2022/04/17 05:26:43;;;;;;;664.58;617.10;;;3.20;1.00;;;;;;5133042;27;20439;-81
2022/04/17 05:29:09;;;;;;;693.65;644.83;;;4.30;1.00;;;;;;5096530;27;20058;-82
2022/04/17 05:31:35;;;;;;;741.30;689.08;;;3.40;1.00;;;;;;5133124;27;20047;-81
2022/04/17 05:34:03;;;;;;;729.60;677.65;;;3.20;1.00;;;;;;5132880;27;20507;-82
2022/04/17 05:36:29;;;;;;;;;;;4.70;1.00;;;;;;5114500;27;20111;-81
2022/04/17 05:38:55;;;;;;;686.85;637.53;;;3.80;1.00;;;;;;5114472;27;19923;-82
2022/04/17 05:41:29;;;;;;;618.67;574.25;;;4.20;1.00;;;;;;5113626;27;20103;-82
2022/04/17 05:43:57;;;;;;;640.90;595.67;;;3.60;1.00;;;;;;5097792;27;20125;-82
2022/04/17 05:46:24;;;;;;;735.90;684.13;;;3.80;1.00;;;;;;5113481;27;20043;-81
2022/04/17 05:48:50;;;;;;;557.10;517.05;;;5.70;1.00;;;;;;5132675;27;20043;-84
2022/04/17 05:51:17;;;;;;;706.97;657.28;;;3.90;1.00;;;;;;5131360;27;20500;-81
2022/04/17 05:53:43;;;;;;;732.45;681.33;;;;;;;;;;5097006;27;20046;-82
2022/04/17 05:56:09;;;;;;;677.45;628.35;;;4.30;1.00;;;;;;5113588;27;20063;-82
2022/04/17 05:58:34;;;;;;;675.40;626.80;;;4.30;1.00;;;;;;5131737;27;20061;-82
2022/04/17 06:01:02;;;;;;;573.45;531.80;;;4.50;1.00;;;;;;5132613;27;20129;-81
2022/04/17 06:03:28;;;;;;;551.28;511.25;;;4.60;1.00;;;;;;5131728;27;20055;-81
2022/04/17 06:05:53;;;;;;;544.13;504.67;;;5.00;1.00;;;;;;5132618;27;20053;-81
2022/04/17 06:08:19;;;;;;;517.60;480.55;;;4.90;1.00;;;;;;5113235;27;20040;-86
2022/04/17 06:10:45;;;;;;;568.13;527.72;;;5.00;1.00;;;;;;5131460;27;20114;-82
2022/04/17 06:13:10;;;;;;;490.60;455.92;;;5.90;1.00;;;;;;5131965;27;20399;-82
2022/04/17 06:15:36;;;;;;;462.88;429.08;;;5.50;1.00;;;;;;5113997;27;20055;-85
2022/04/17 06:18:02;;;;;;;449.15;416.60;;;5.70;1.00;;;;;;5113253;27;20047;-83
2022/04/17 06:20:28;;;;;;;434.98;403.50;;;6.60;1.00;;;;;;5096978;28;20119;-82
2022/04/17 06:22:53;;;;;;;491.38;456.00;;;8.20;1.00;;;;;;5131723;27;20047;-82
2022/04/17 06:25:19;;;;;;;392.95;364.88;;;6.80;1.00;;;;;;5131712;28;20495;-81
2022/04/17 06:27:47;;;;;;;494.73;458.27;;;6.90;1.00;;;;;;5113941;28;20091;-82
2022/04/17 06:30:17;;;;;;;456.55;423.52;;;7.80;1.00;;;;;;5131945;28;20118;-82
2022/04/17 06:32:43;;;;;;;419.10;389.38;;;6.40;1.00;;;;;;5113297;28;20051;-81
2022/04/17 06:35:11;;;;;;;402.02;374.40;;;6.90;1.00;;;;;;5130182;28;20049;-81
2022/04/17 06:37:50;;;;;;;406.73;378.38;;;6.60;1.00;;;;;;5131976;28;20083;-81
2022/04/17 06:40:31;;;;;;;390.73;363.73;;;6.70;1.00;;;;;;5096446;28;20051;-81
2022/04/17 06:43:01;;;;;;;423.70;394.08;;;6.70;1.00;;;;;;5132030;28;20047;-83
2022/04/17 06:45:28;;;;;;;444.48;413.60;;;7.00;1.00;;;;;;5132478;28;20043;-80
2022/04/17 06:47:55;;;;;;;442.55;411.60;;;;;;;;;;5113762;28;20062;-81
2022/04/17 06:50:22;;;;;;;402.98;374.88;;;8.30;1.00;;;;;;5131503;28;20188;-81
2022/04/17 06:52:49;;;;;;;411.90;384.90;;;8.30;1.00;;;;;;5112946;28;20047;-81
2022/04/17 06:55:15;;;;;;;356.30;332.33;;;7.60;1.00;;;;;;5131854;28;20051;-82
2022/04/17 06:57:48;;;;;;;405.63;377.70;;;7.30;1.00;;;;;;5132137;28;20387;-81
2022/04/17 07:00:15;;;;;;;406.80;378.00;;;7.00;1.00;;;;;;5113512;28;20546;-81
2022/04/17 07:02:42;;;;;;;363.63;339.27;;;7.60;1.00;;;;;;5131144;28;20107;-82
2022/04/17 07:05:09;;;;;;;388.58;361.92;;;9.70;1.00;;;;;;5131777;28;20047;-81
2022/04/17 07:07:40;;;;;;;376.50;351.40;;;7.80;1.00;;;;;;5131303;28;20054;-81
2022/04/17 07:10:06;;;;;;;401.15;374.60;;;7.90;1.00;;;;;;5096572;28;20483;-83
2022/04/17 07:12:34;;;;;;;390.40;363.70;;;7.90;1.00;;;;;;5113657;28;20047;-82
2022/04/17 07:15:01;;;;;;;349.67;325.27;;;8.00;1.00;;;;;;5133234;27;20389;-81
2022/04/17 07:17:37;;;;;;;341.48;318.75;;;8.10;1.00;;;;;;5134942;27;20034;-83
2022/04/17 07:20:07;;;;;;;316.25;295.85;;;9.40;1.00;;;;;;5117731;27;20047;-81
2022/04/17 07:22:38;;;;;;;399.50;371.23;;;8.30;1.00;;;;;;5117799;27;20043;-82
2022/04/17 07:25:06;;;;;;;415.38;385.90;;;9.00;1.00;;;;;;5135454;27;20104;-81
2022/04/17 07:27:36;;;;;;;;;;;8.40;1.00;;;;;;5135921;27;20058;-82
2022/04/17 07:30:04;;;;;;;267.27;250.63;;;8.80;1.00;;;;;;5117802;27;19920;-82
2022/04/17 07:32:30;;;;;;;310.98;290.55;;;10.60;99.90;;;;;;5136100;27;20039;-80
2022/04/17 07:34:56;;;;;;;132.50;124.00;;;12.20;99.90;;;;;;5134445;27;20050;-81
2022/04/17 07:37:26;;;;;;;130.88;122.20;;;14.10;99.90;;;;;;5099415;27;20100;-81
2022/04/17 07:39:52;;;;;;;173.35;162.82;;;15.20;99.90;;;;;;5117803;27;20051;-81
2022/04/17 07:42:20;;;;;;;153.32;140.43;;;16.10;99.90;;;;;;5116905;27;20051;-81
2022/04/17 07:44:48;;;;;;;150.93;141.85;;;16.70;99.90;;;;;;5134395;27;20040;-81
2022/04/17 07:47:13;;;;;;;324.02;300.73;;;16.80;99.90;;;;;;5116128;27;20376;-83
2022/04/17 07:49:39;;;;;;;222.82;208.23;;;16.50;99.90;;;;;;5117294;27;20068;-82
2022/04/17 07:52:05;;;;;;;187.70;175.85;;;16.70;99.90;;;;;;5100452;27;20050;-83
2022/04/17 07:54:31;;;;;;;168.30;158.13;;;17.00;99.90;;;;;;5134360;27;20447;-81
2022/04/17 07:56:57;;;;;;;214.07;199.88;;;17.50;99.90;;;;;;5110631;28;20056;-81
2022/04/17 07:59:24;;;;;;;549.75;507.73;;;18.10;99.90;;;;;;5112454;28;20047;-81
2022/04/17 08:01:50;;;;;;;;;;;17.60;99.90;;;;;;5096566;28;20054;-80
2022/04/17 08:04:16;;;;;;;530.78;493.15;;;16.90;99.90;;;;;;5113241;28;19919;-81
2022/04/17 08:06:42;;;;;;;497.65;463.65;;;16.90;99.90;;;;;;5078945;28;20043;-82
2022/04/17 08:09:08;;;;;;;518.30;483.10;;;17.20;99.90;;;;;;5113270;28;20048;-81
2022/04/17 08:11:34;;;;;;;679.70;634.00;;;17.20;99.90;;;;;;5078557;28;20438;-81
2022/04/17 08:13:59;;;;;;;773.95;718.53;;;18.40;99.90;;;;;;5095407;28;20096;-83
2022/04/17 08:16:25;;;;;;;626.90;583.75;;;18.80;99.90;;;;;;5095260;28;20043;-81
2022/04/17 08:18:51;;;;;;;718.28;665.92;;;19.20;99.90;;;;;;5095038;28;20051;-81
2022/04/17 08:21:16;;;;;;;821.05;762.58;;;19.50;99.90;;;;;;5077813;28;20044;-80
2022/04/17 08:23:42;;;;;;;828.72;768.90;;;19.30;99.90;;;;;;5095467;28;20047;-81
2022/04/17 08:26:08;;;;;;;792.15;735.42;;;19.00;99.90;;;;;;5112771;28;20047;-82
2022/04/17 08:28:34;;;;;;;202.40;189.75;;;19.20;99.90;;;;;;5112182;28;20507;-82
2022/04/17 08:31:02;;;;;;;482.83;442.00;;;19.20;99.90;;;;;;5078215;28;20123;-83
2022/04/17 08:33:28;;;;;;;287.02;270.48;;;19.30;99.90;;;;;;5077711;28;20058;-82
2022/04/17 08:35:54;;;;;;;251.65;236.43;;;20.00;99.90;;;;;;5112425;28;20372;-82
2022/04/17 08:38:21;;;;;;;193.23;182.45;;;20.30;99.90;;;;;;5094024;28;20048;-81
2022/04/17 08:40:49;;;;;;;238.82;224.80;;;20.40;99.90;;;;;;5113247;28;20491;-81
2022/04/17 08:43:18;;;;;;;274.15;257.08;;;20.30;99.90;;;;;;5094917;28;20078;-82
2022/04/17 08:45:43;;;;;;;212.52;200.02;;;19.40;99.90;;;;;;5113399;28;20040;-82
2022/04/17 08:48:09;;;;;;;139.57;131.75;;;19.70;99.90;;;;;;5112413;28;20042;-82
2022/04/17 08:50:35;;;;;;;270.90;254.32;;;20.60;99.90;;;;;;5094700;28;20047;-82
2022/04/17 08:53:02;;;;;;;232.65;219.57;;;20.40;99.90;;;;;;5111124;28;20130;-82
2022/04/17 08:55:28;;;;;;;141.65;133.60;;;20.90;99.90;;;;;;5113016;28;20132;-83
2022/04/17 08:57:54;;;;;;;221.35;209.40;;;21.90;99.90;;;;;;5096295;27;20063;-82
2022/04/17 09:00:20;;;;;;;176.75;167.07;;;22.30;99.90;;;;;;5133063;27;20051;-82
2022/04/17 09:02:47;;;;;;;194.95;184.07;;;21.90;99.90;;;;;;5114435;27;20399;-83
2022/04/17 09:05:14;;;;;;;186.48;176.15;;;21.40;99.90;;;;;;5098340;27;20043;-83
2022/04/17 09:07:44;;;;;;;203.77;192.60;;;21.70;99.90;;;;;;5114884;27;20120;-83
2022/04/17 09:10:09;;;;;;;221.85;209.40;;;21.20;99.90;;;;;;5133641;27;20039;-82
2022/04/17 09:12:35;;;;;;;275.85;260.17;;;21.40;99.90;;;;;;5133091;27;20283;-82
2022/04/17 09:15:02;;;;;;;236.25;222.57;;;21.40;99.90;;;;;;5133562;27;20035;-82
2022/04/17 09:17:34;;;;;;;281.37;261.70;;;21.60;99.90;;;;;;5114105;27;20055;-86
2022/04/17 09:20:04;;;;;;;242.13;228.80;;;21.30;99.90;;;;;;5114847;27;20043;-82
2022/04/17 09:23:00;;;;;;;192.77;182.23;;;21.40;99.90;;;;;;5097109;27;20053;-84
2022/04/17 09:25:26;;;;;;;226.23;213.90;;;22.10;99.90;;;;;;5096049;27;20087;-83
2022/04/17 09:28:08;;;;;;;165.73;156.45;;;22.50;99.90;;;;;;5080886;27;20047;-82
2022/04/17 09:30:39;;;;;;;233.80;220.38;;;22.20;99.90;;;;;;5114306;27;20053;-82
2022/04/17 09:33:09;;;;;;;204.98;193.85;;;22.30;99.90;;;;;;5114473;27;20142;-81
2022/04/17 09:35:35;;;;;;;256.67;241.60;;;23.00;99.90;;;;;;5111429;27;20183;-81
2022/04/17 09:38:06;;;;;;;242.75;229.25;;;23.40;99.90;;;;;;5096660;27;20051;-81
2022/04/17 09:40:32;;;;;;;254.07;240.25;;;22.80;99.90;;;;;;5097527;27;20039;-81
2022/04/17 09:43:12;;;;;;;202.25;191.18;;;22.20;99.90;;;;;;5114872;27;20047;-81
2022/04/17 09:45:59;;;;;;;95.80;90.30;;;22.60;99.90;;;;;;5098202;27;20126;-81
2022/04/17 09:48:29;;;;;;;196.55;185.65;;;23.40;99.90;;;;;;5114438;27;20127;-81
2022/04/17 09:50:55;;;;;;;92.40;87.03;;;24.30;99.90;;;;;;5114177;27;20051;-82
2022/04/17 09:53:34;;;;;;;139.20;130.95;;;25.00;99.90;;;;;;5113958;27;20058;-82
2022/04/17 09:56:12;;;;;;;172.68;162.60;;;24.80;99.90;;;;;;5132604;27;20065;-82
2022/04/17 09:58:48;;;;;;;268.98;248.65;;;23.00;99.90;;;;;;5132277;27;20133;-82
2022/04/17 10:01:16;;;;;;;101.15;95.10;;;22.70;99.90;;;;;;5132895;27;20123;-81
2022/04/17 10:03:45;;;;;;;59.03;55.22;;;22.40;99.90;;;;;;5132100;27;20395;-81
2022/04/17 10:06:12;;;;;;;90.13;84.78;;;22.80;99.90;;;;;;5113651;27;20150;-81
2022/04/17 10:08:42;;;;;;;190.82;178.52;;;23.60;99.90;;;;;;5113877;27;20049;-81
2022/04/17 10:11:08;;;;;;;188.52;178.18;;;24.30;99.90;;;;;;5113989;28;20049;-81
2022/04/17 10:13:35;;;;;;;50.53;47.22;;;25.40;99.90;;;;;;5112526;27;20059;-82
2022/04/17 10:16:03;;;;;;;274.17;255.95;;;26.50;99.90;;;;;;5132441;27;20047;-81
2022/04/17 10:18:36;;;;;;;239.15;223.27;;;26.00;99.90;;;;;;5113026;28;20112;-81
2022/04/17 10:21:04;;;;;;;67.90;63.53;;;24.00;99.90;;;;;;5132041;27;20467;-80
2022/04/17 10:23:30;;;;;;;89.20;84.05;;;23.80;99.90;;;;;;5113308;28;20047;-81
2022/04/17 10:26:01;;;;;;;59.83;55.88;;;24.40;99.90;;;;;;5132574;28;20050;-81
2022/04/17 10:28:33;;;;;;;153.52;144.65;;;24.70;99.90;;;;;;5114940;28;20047;-82
2022/04/17 10:31:17;;;;;;;103.10;97.07;;;25.00;99.90;;;;;;5115026;28;20054;-82
2022/04/17 10:34:09;;;;;;;42.17;39.40;;;25.50;99.90;;;;;;5113450;28;20613;-81
2022/04/17 10:36:41;;;;;;;99.78;94.13;;;26.70;99.90;;;;;;5113236;28;20074;-82
2022/04/17 10:39:20;;;;;;;50.58;47.25;;;27.50;99.90;;;;;;5131040;28;20375;-82
2022/04/17 10:41:51;;;;;;;119.97;112.78;;;28.40;99.90;;;;;;5131656;28;20043;-82
2022/04/17 10:44:17;;;;;;;133.43;126.13;;;27.70;99.90;;;;;;5113415;28;20433;-83
2022/04/17 10:46:51;;;;;;;59.97;56.20;;;28.40;99.90;;;;;;5096119;28;20259;-83
2022/04/17 10:49:19;;;;;;;70.60;66.47;;;28.80;99.90;;;;;;5112273;28;20086;-82
2022/04/17 10:51:52;;;;;;;60.33;56.67;;;29.10;99.90;;;;;;5135129;27;20479;-81
2022/04/17 10:54:18;;;;;;;96.93;91.45;;;28.40;99.90;;;;;;5117504;27;20086;-81
2022/04/17 10:56:58;;;;;;;75.30;70.93;;;28.30;99.90;;;;;;5116410;27;20468;-82
2022/04/17 10:59:33;;;;;;;46.38;43.28;;;28.60;99.90;;;;;;5135363;27;20517;-81
2022/04/17 11:02:06;;;;;;;85.28;80.25;;;27.90;99.90;;;;;;5116894;27;20385;-83
2022/04/17 11:04:50;;;;;;;58.75;55.15;;;28.70;99.90;;;;;;5135525;27;20095;-82
2022/04/17 11:07:16;;;;;;;67.13;62.95;;;28.40;99.90;;;;;;5135589;27;20539;-82
2022/04/17 11:09:44;;;;;;;73.15;68.75;;;26.60;99.90;;;;;;5098780;27;20126;-83
2022/04/17 11:12:19;;;;;;;42.53;39.53;;;26.40;99.90;;;;;;5100089;27;20451;-82
2022/04/17 11:14:59;;;;;;;70.25;65.30;;;25.10;99.90;;;;;;5116913;27;20055;-82
2022/04/17 11:17:32;;;;;;;57.13;52.78;;;25.00;99.90;;;;;;5117122;27;20487;-82
2022/04/17 11:20:00;;;;;;;46.42;43.35;;;25.30;99.90;;;;;;5118667;27;20086;-81
2022/04/17 11:22:31;;;;;;;57.88;54.10;;;26.10;99.90;;;;;;5099514;27;20394;-84
2022/04/17 11:24:58;;;;;;;28.35;26.25;;;25.20;99.90;;;;;;5136436;27;20155;-81
2022/04/17 11:27:41;;;;;;;35.83;33.40;;;24.90;99.90;;;;;;5135516;27;20440;-82
2022/04/17 11:30:16;;;;;;;46.33;43.17;;;26.20;99.90;;;;;;5134884;27;20089;-83
2022/04/17 11:32:41;;;;;;;68.18;64.18;;;27.50;99.90;;;;;;5115601;27;20043;-83
2022/04/17 11:35:09;;;;;;;42.08;39.13;;;27.60;99.90;;;;;;5135681;27;20047;-83
2022/04/17 11:37:35;;;;;;;109.47;103.20;;;28.20;99.90;;;;;;5134463;27;20058;-83
2022/04/17 11:40:15;;;;;;;54.17;50.90;;;29.00;99.90;;;;;;5116331;27;20107;-83
2022/04/17 11:42:46;;;;;;;93.10;87.97;;;28.60;99.90;;;;;;5133447;27;20540;-82
2022/04/17 11:45:15;;;;;;;49.67;46.58;;;28.20;99.90;;;;;;5116112;27;20071;-83
2022/04/17 11:47:46;;;;;;;56.25;52.75;;;27.80;99.90;;;;;;5115928;27;20073;-85
2022/04/17 11:50:27;;;;;;;39.58;37.10;;;26.80;99.90;;;;;;5134002;27;20188;-84
2022/04/17 11:52:58;;;;;;;40.75;38.15;;;26.00;99.90;;;;;;5115264;27;20054;-85
2022/04/17 11:55:30;;;;;;;51.42;48.05;;;26.00;99.90;;;;;;5133924;27;20510;-81
2022/04/17 11:57:56;;;;;;;29.90;27.80;;;26.30;99.90;;;;;;5134037;27;20055;-82
2022/04/17 12:00:22;;;;;;;32.65;30.50;;;26.80;99.90;;;;;;5114742;27;20089;-82
2022/04/17 12:02:55;;;;;;;39.15;36.55;;;27.60;99.90;;;;;;5131588;27;20039;-82
2022/04/17 12:05:21;;;;;;;38.45;35.53;;;27.80;99.90;;;;;;5115925;27;20483;-82
2022/04/17 12:08:11;;;;;;;36.38;34.00;;;27.80;99.90;;;;;;5133771;27;20043;-83
2022/04/17 12:10:42;;;;;;;40.28;37.60;;;27.70;99.90;;;;;;5133573;27;20495;-82
2022/04/17 12:13:17;;;;;;;50.47;47.20;;;26.50;99.90;;;;;;5098978;27;20088;-82
2022/04/17 12:15:45;;;;;;;42.72;39.97;;;26.10;99.90;;;;;;5115800;27;20055;-82
2022/04/17 12:18:15;;;;;;;62.28;58.40;;;25.10;99.90;;;;;;5134347;27;20050;-84
2022/04/17 12:20:41;;;;;;;66.00;62.10;;;24.20;99.90;;;;;;5115160;27;20395;-84
2022/04/17 12:23:07;;;;;;;167.95;156.70;;;23.10;99.90;;;;;;5099306;27;20047;-82
2022/04/17 12:25:36;;;;;;;77.43;72.55;;;22.20;99.90;;;;;;5134807;27;20066;-83
2022/04/17 12:28:02;;;;;;;77.22;72.60;;;21.30;99.90;;;;;;5098900;27;20130;-83
2022/04/17 12:30:29;;;;;;;78.43;73.93;;;21.00;99.90;;;;;;5115663;27;20479;-83
2022/04/17 12:33:00;;;;;;;100.55;94.78;;;20.70;99.90;;;;;;5115249;27;20054;-83
2022/04/17 12:35:28;;;;;;;88.43;83.35;;;20.40;99.90;;;;;;5097947;27;20074;-83
2022/04/17 12:38:05;;;;;;;69.78;65.47;;;20.20;99.90;;;;;;5133378;27;20093;-83
2022/04/17 12:40:38;;;;;;;113.88;107.13;;;20.00;99.90;;;;;;5098636;27;20047;-81